Beaverton, OR (97006)

1:04 AM PST on February 07, 2016 (GMT -0800)
SW 181st / Jay St | | Change Station
CLOSE
Current Station
Personal Weather Station
Location: Beaverton, OR
Elevation: 200 ft
Nearby Weather Stations

Elev 200 ft 45.51 °N, 122.86 °W | Updated 8 seconds ago

Fog
Fog
43.9 °F
Feels Like 44 °F
N
0.0
Wind Variable Wind from SSW
Gusts 0.0 mph

Today
High -- | Low -- °F
--% Chance of Precip.
Yesterday
High -- | Low -- °F
Precip. -- in
Pressure 30.48 in
Visibility 10.0 miles
Clouds Overcast 2000 ft
Windchill 44 °F
Dew Point 43 °F
Humidity 96%
Rainfall 0.00 in
Snow Depth Not available.
7:25 AM 5:26 PM
Waning Crescent, 2% visible
METAR KHIO 070853Z AUTO 00000KT 10SM OVC020 05/04 A3047 RMK AO2 SLP321 T00500039 53009
Pressure 30.48 in
Visibility 10.0 miles
Clouds Overcast 2000 ft
Windchill 44 °F
Dew Point 43 °F
Humidity 96%
Rainfall 0.00 in
Snow Depth Not available.
7:25 AM 5:26 PM
Waning Crescent, 2% visible
METAR KHIO 070853Z AUTO 00000KT 10SM OVC020 05/04 A3047 RMK AO2 SLP321 T00500039 53009

10-Day Weather Forecast

Almanac

Astronomy

Feb. 07, 2016 Rise Set
Actual Time
Civil Twilight
Nautical Twilight
Astronomical Twilight
Moon
Length of Visible Light
Length of Day
Tomorrow will be .
, % of the Moon is Illuminated

Today's Extremes

State Highs State Lows

Community

WunderPhotos

Upload Photos

1,891,171 photos uploaded!

WunderBlog® & News

Nearby

Air Quality

  Air Quality AQ Index Pollutant
Not available.

Snow Depth

Station Depth Elevation

Earthquake Activity

City Distance Mag. Time & Date
Minimum magnitude displayed is 2.5.

Coastal Water Temperatures

Place Temperature

Stations

Nearby Weather Stations

Station Location Temp. Windchill Dew Point Humidity Wind Precip. Elev Updated Type
                   

Watches & Warnings

There are currently no watches in effect.